createdAt,value
2023-04-15T00:00:11.269Z,100361.25
2023-04-15T00:03:16.181Z,100371.06
2023-04-15T00:06:19.662Z,100382.16
2023-04-15T00:09:21.855Z,100399.88
2023-04-15T00:12:25.014Z,100402.00
2023-04-15T00:15:27.596Z,100391.53
2023-04-15T00:18:30.653Z,100391.75
2023-04-15T00:21:33.182Z,100395.94
2023-04-15T00:24:35.309Z,100418.94
2023-04-15T00:27:38.285Z,100416.63
2023-04-15T00:30:40.700Z,100416.41
2023-04-15T00:33:42.904Z,100405.13
2023-04-15T00:36:45.152Z,100405.34
2023-04-15T00:39:47.819Z,100397.22
2023-04-15T00:42:51.040Z,100384.06
2023-04-15T00:45:54.886Z,100375.06
2023-04-15T00:49:00.056Z,100378.81
2023-04-15T00:52:05.981Z,100379.69
2023-04-15T00:55:09.084Z,100373.19
2023-04-15T00:58:12.475Z,100391.38
2023-04-15T01:01:14.989Z,100398.69
2023-04-15T01:04:18.285Z,100393.91
2023-04-15T01:07:20.525Z,100392.66
2023-04-15T01:10:22.743Z,100396.81
2023-04-15T01:13:25.440Z,100391.16
2023-04-15T01:16:28.936Z,100391.75
2023-04-15T01:19:32.581Z,100385.69
2023-04-15T01:22:34.995Z,100384.44
2023-04-15T01:25:37.578Z,100398.47
2023-04-15T01:28:39.903Z,100411.22
2023-04-15T01:31:49.827Z,100406.16
2023-04-15T01:35:11.473Z,100411.00
2023-04-15T01:38:24.500Z,100424.78
2023-04-15T01:41:28.343Z,100438.34
2023-04-15T01:44:30.377Z,100425.38
2023-04-15T01:47:34.508Z,100421.38
2023-04-15T01:50:38.337Z,100411.78
2023-04-15T01:53:40.693Z,100403.84
2023-04-15T01:56:44.286Z,100397.59
2023-04-15T01:59:47.125Z,100400.06
2023-04-15T02:02:50.783Z,100391.75
2023-04-15T02:05:53.670Z,100381.53
2023-04-15T02:08:57.150Z,100371.91
2023-04-15T02:11:59.592Z,100368.81
2023-04-15T02:15:02.486Z,100377.13
2023-04-15T02:18:05.190Z,100372.78
2023-04-15T02:21:07.656Z,100369.22
2023-04-15T02:24:12.485Z,100375.50
2023-04-15T02:27:18.104Z,100366.97
2023-04-15T02:30:24.039Z,100387.22
2023-04-15T02:33:26.332Z,100381.13
2023-04-15T02:36:30.000Z,100377.81
2023-04-15T02:39:32.441Z,100367.13
2023-04-15T02:42:34.636Z,100359.59
2023-04-15T02:45:37.159Z,100376.31
2023-04-15T02:48:40.399Z,100370.47
2023-04-15T02:51:44.122Z,100350.41
2023-04-15T02:54:46.289Z,100350.41
2023-04-15T02:57:48.394Z,100344.81
2023-04-15T03:00:52.681Z,100360.03
2023-04-15T03:03:54.873Z,100368.59
2023-04-15T03:06:57.732Z,100371.09
2023-04-15T03:10:00.976Z,100396.75
2023-04-15T03:13:04.536Z,100414.94
2023-04-15T03:16:07.178Z,100420.56
2023-04-15T03:19:09.530Z,100425.16
2023-04-15T03:22:13.745Z,100406.78
2023-04-15T03:25:16.073Z,100399.91
2023-04-15T03:28:19.437Z,100409.69
2023-04-15T03:31:23.511Z,100415.50
2023-04-15T03:34:26.023Z,100439.50
2023-04-15T03:37:28.530Z,100434.72
2023-04-15T03:40:30.816Z,100430.13
2023-04-15T03:43:33.071Z,100430.75
2023-04-15T03:46:35.182Z,100413.81
2023-04-15T03:49:37.902Z,100415.72
2023-04-15T03:52:41.455Z,100417.59
2023-04-15T03:55:43.835Z,100433.25
2023-04-15T03:58:46.254Z,100459.78
2023-04-15T04:01:48.987Z,100485.41
2023-04-15T04:04:52.090Z,100477.28
2023-04-15T04:07:54.924Z,100497.31
2023-04-15T04:10:57.445Z,100499.44
2023-04-15T04:14:01.941Z,100494.22
2023-04-15T04:17:05.973Z,100496.31
2023-04-15T04:20:11.913Z,100485.03
2023-04-15T04:23:15.105Z,100482.97
2023-04-15T04:26:17.598Z,100478.97
2023-04-15T04:29:19.707Z,100484.63
2023-04-15T04:32:22.038Z,100488.59
2023-04-15T04:35:24.125Z,100492.81
2023-04-15T04:38:26.541Z,100500.34
2023-04-15T04:41:30.056Z,100502.84
2023-04-15T04:44:32.119Z,100493.03
2023-04-15T04:47:34.345Z,100505.41
2023-04-15T04:50:36.966Z,100505.41
2023-04-15T04:53:39.174Z,100501.22
2023-04-15T04:56:41.286Z,100503.84
2023-04-15T04:59:43.612Z,100495.50
2023-04-15T05:02:45.903Z,100497.75
2023-04-15T05:05:49.594Z,100510.91
2023-04-15T05:08:51.760Z,100505.00
2023-04-15T05:11:54.629Z,100509.75
2023-04-15T05:18:46.510Z,100492.13
2023-04-15T05:21:49.252Z,100489.22
2023-04-15T05:24:52.629Z,100493.59
2023-04-15T05:27:54.963Z,100491.72
2023-04-15T05:30:57.092Z,100487.75
2023-04-15T05:33:59.483Z,100493.41
2023-04-15T05:37:01.521Z,100483.97
2023-04-15T05:40:04.658Z,100487.91
2023-04-15T05:43:06.807Z,100501.50
2023-04-15T05:46:09.053Z,100503.03
2023-04-15T05:49:11.311Z,100512.06
2023-04-15T05:52:13.761Z,100511.75
2023-04-15T05:55:16.318Z,100518.91
2023-04-15T05:58:18.468Z,100515.56
2023-04-15T06:01:20.787Z,100521.66
2023-04-15T06:04:24.405Z,100511.19
2023-04-15T06:07:26.673Z,100516.84
2023-04-15T06:10:28.821Z,100509.31
2023-04-15T06:13:31.254Z,100519.09
2023-04-15T06:16:33.434Z,100528.53
2023-04-15T06:19:36.839Z,100522.69
2023-04-15T06:22:39.547Z,100512.66
2023-04-15T06:25:44.109Z,100515.38
2023-04-15T06:28:46.051Z,100511.19
2023-04-15T06:31:49.367Z,100513.31
2023-04-15T06:34:51.498Z,100520.59
2023-04-15T06:37:53.631Z,100517.25
2023-04-15T06:40:55.737Z,100530.22
2023-04-15T06:43:58.078Z,100548.00
2023-04-15T06:47:00.120Z,100562.84
2023-04-15T06:50:02.469Z,100563.06
2023-04-15T06:53:04.647Z,100560.53
2023-04-15T06:56:08.734Z,100561.78
2023-04-15T06:59:14.430Z,100559.06
2023-04-15T07:02:19.523Z,100552.38
2023-04-15T07:05:28.082Z,100561.19
2023-04-15T07:08:30.041Z,100562.84
2023-04-15T07:11:32.170Z,100554.66
2023-04-15T07:14:34.223Z,100565.31
2023-04-15T07:17:37.523Z,100568.84
2023-04-15T07:20:40.338Z,100573.69
2023-04-15T07:23:42.677Z,100571.56
2023-04-15T07:26:45.524Z,100578.91
2023-04-15T07:29:48.795Z,100581.59
2023-04-15T07:32:50.865Z,100577.13
2023-04-15T07:35:53.403Z,100587.94
2023-04-15T07:38:55.610Z,100596.22
2023-04-15T07:41:59.237Z,100594.88
2023-04-15T07:45:01.703Z,100600.47
2023-04-15T07:48:04.438Z,100594.56
2023-04-15T07:51:07.074Z,100602.19
2023-04-15T07:54:09.300Z,100588.84
2023-04-15T07:57:12.583Z,100602.97
2023-04-15T08:00:16.399Z,100610.16
2023-04-15T08:03:18.655Z,100608.88
2023-04-15T08:06:20.991Z,100606.00
2023-04-15T08:09:23.192Z,100612.03
2023-04-15T08:12:26.017Z,100610.63
2023-04-15T08:15:28.644Z,100616.16
2023-04-15T08:18:31.022Z,100621.09
2023-04-15T08:21:33.325Z,100618.75
2023-04-15T08:24:35.555Z,100615.34
2023-04-15T08:27:38.238Z,100625.38
2023-04-15T08:30:40.305Z,100622.16
2023-04-15T08:33:42.904Z,100623.38
2023-04-15T08:36:49.089Z,100610.66
2023-04-15T08:39:54.192Z,100613.88
2023-04-15T08:42:58.020Z,100621.97
2023-04-15T08:46:05.404Z,100620.63
2023-04-15T08:49:11.017Z,100621.00
2023-04-15T08:52:13.331Z,100623.72
2023-04-15T08:55:16.306Z,100624.34
2023-04-15T08:58:20.703Z,100634.00
2023-04-15T09:01:23.359Z,100636.81
2023-04-15T09:04:26.201Z,100643.63
2023-04-15T09:07:34.915Z,100623.38
2023-04-15T09:10:39.507Z,100624.53
2023-04-15T09:13:41.705Z,100610.38
2023-04-15T09:17:06.471Z,100611.22
2023-04-15T09:20:21.190Z,100603.72
2023-04-15T09:23:23.569Z,100633.91
2023-04-15T09:26:36.695Z,100637.94
2023-04-15T09:29:39.285Z,100624.78
2023-04-15T09:32:58.882Z,100635.47
2023-04-15T09:36:05.881Z,100627.75
2023-04-15T09:39:08.204Z,100626.69
2023-04-15T09:42:11.770Z,100628.81
2023-04-15T09:45:13.943Z,100631.53
2023-04-15T09:48:18.546Z,100622.94
2023-04-15T09:51:35.183Z,100621.88
2023-04-15T09:54:39.211Z,100623.94
2023-04-15T09:57:42.021Z,100621.44
2023-04-15T10:00:44.323Z,100634.16
2023-04-15T10:03:48.349Z,100625.41
2023-04-15T10:06:56.389Z,100628.97
2023-04-15T10:10:00.588Z,100612.94
2023-04-15T10:13:03.664Z,100636.38
2023-04-15T10:16:11.054Z,100640.78
2023-04-15T10:19:16.744Z,100644.16
2023-04-15T10:22:19.575Z,100645.41
2023-04-15T10:25:22.698Z,100636.19
2023-04-15T10:28:27.951Z,100620.75
2023-04-15T10:31:30.803Z,100619.47
2023-04-15T10:34:34.162Z,100627.84
2023-04-15T10:38:23.454Z,100611.75
2023-04-15T10:41:33.280Z,100596.06
2023-04-15T10:44:57.215Z,100598.34
2023-04-15T10:48:03.549Z,100607.59
2023-04-15T10:51:09.481Z,100609.69
2023-04-15T10:54:15.659Z,100605.28
2023-04-15T11:01:13.851Z,100588.38
2023-04-15T11:14:55.620Z,100597.97
2023-04-15T11:19:15.672Z,100612.63
2023-04-15T11:22:20.406Z,100608.22
2023-04-15T11:25:28.145Z,100602.31
2023-04-15T11:28:31.444Z,100586.00
2023-04-15T11:31:33.609Z,100593.09
2023-04-15T11:34:36.463Z,100595.78
2023-04-15T11:37:39.154Z,100590.91
2023-04-15T11:40:49.671Z,100583.63
2023-04-15T11:43:54.073Z,100589.66
2023-04-15T11:46:56.876Z,100587.34
2023-04-15T11:50:17.235Z,100587.72
2023-04-15T11:53:19.370Z,100589.91
2023-04-15T11:56:23.935Z,100591.84
2023-04-15T11:59:30.255Z,100585.44
2023-04-15T12:02:40.361Z,100568.38
2023-04-15T12:06:09.138Z,100575.38
2023-04-15T12:09:21.147Z,100568.97
2023-04-15T12:12:27.790Z,100570.47
2023-04-15T12:15:32.027Z,100571.31
2023-04-15T12:18:42.408Z,100567.91
2023-04-15T12:21:48.450Z,100562.69
2023-04-15T12:24:57.230Z,100566.47
2023-04-15T12:27:59.639Z,100576.09
2023-04-15T12:31:08.281Z,100576.03
2023-04-15T12:34:11.095Z,100561.78
2023-04-15T12:37:14.558Z,100566.97
2023-04-15T12:40:16.844Z,100570.25
2023-04-15T12:43:19.055Z,100565.34
2023-04-15T12:46:21.815Z,100569.31
2023-04-15T12:49:24.890Z,100580.50
2023-04-15T12:52:26.990Z,100577.56
2023-04-15T12:55:29.199Z,100580.50
2023-04-15T12:58:31.374Z,100581.28
2023-04-15T13:01:33.680Z,100591.22
2023-04-15T13:04:35.849Z,100591.56
2023-04-15T13:07:38.171Z,100591.41
2023-04-15T13:10:40.498Z,100574.47
2023-04-15T13:13:43.664Z,100572.78
2023-04-15T13:16:46.265Z,100568.91
2023-04-15T13:19:48.394Z,100579.97
2023-04-15T13:22:50.616Z,100591.03
2023-04-15T13:25:53.448Z,100583.75
2023-04-15T13:28:55.964Z,100596.22
2023-04-15T13:31:59.114Z,100590.63
2023-04-15T13:35:02.743Z,100580.09
2023-04-15T13:38:04.974Z,100586.31
2023-04-15T13:41:07.130Z,100585.31
2023-04-15T13:44:09.521Z,100573.81
2023-04-15T13:47:11.762Z,100575.41
2023-04-15T13:50:16.486Z,100568.06
2023-04-15T13:53:18.717Z,100582.16
2023-04-15T13:56:24.074Z,100585.94
2023-04-15T13:59:26.276Z,100589.22
2023-04-15T14:02:28.394Z,100597.16
2023-04-15T14:05:32.502Z,100600.94
2023-04-15T14:08:35.332Z,100586.59
2023-04-15T14:11:40.407Z,100587.44
2023-04-15T14:14:42.628Z,100585.28
2023-04-15T14:17:44.782Z,100586.56
2023-04-15T14:20:47.153Z,100600.09
2023-04-15T14:23:50.021Z,100596.81
2023-04-15T14:26:52.216Z,100612.97
2023-04-15T14:29:54.565Z,100610.13
2023-04-15T14:32:57.148Z,100607.28
2023-04-15T14:36:00.316Z,100612.03
2023-04-15T14:39:06.012Z,100615.19
2023-04-15T14:42:08.435Z,100608.16
2023-04-15T14:45:11.244Z,100596.56
2023-04-15T14:48:13.549Z,100600.97
2023-04-15T14:51:16.468Z,100601.50
2023-04-15T14:54:22.556Z,100607.06
2023-04-15T14:57:24.872Z,100613.03
2023-04-15T15:00:27.050Z,100605.59
2023-04-15T15:03:30.142Z,100611.44
2023-04-15T15:06:42.271Z,100602.25
2023-04-15T15:09:47.304Z,100622.84
2023-04-15T15:12:49.499Z,100635.91
2023-04-15T15:15:54.869Z,100635.41
2023-04-15T15:18:57.615Z,100650.78
2023-04-15T15:22:03.834Z,100643.38
2023-04-15T15:25:06.308Z,100642.66
2023-04-15T15:28:11.050Z,100646.22
2023-04-15T15:31:13.530Z,100640.47
2023-04-15T15:34:27.778Z,100635.66
2023-04-15T15:37:32.013Z,100638.69
2023-04-15T15:40:37.107Z,100631.34
2023-04-15T15:43:47.920Z,100625.72
2023-04-15T15:46:54.431Z,100625.34
2023-04-15T15:49:59.803Z,100632.72
2023-04-15T15:53:03.560Z,100647.16
2023-04-15T15:56:13.810Z,100649.25
2023-04-15T15:59:26.153Z,100641.91
2023-04-15T16:02:52.432Z,100645.41
2023-04-15T16:05:53.284Z,100653.59
2023-04-15T16:08:59.611Z,100642.16
2023-04-15T16:12:02.333Z,100642.81
2023-04-15T16:15:05.014Z,100650.59
2023-04-15T16:18:07.195Z,100643.66
2023-04-15T16:21:17.652Z,100639.88
2023-04-15T16:24:19.823Z,100653.22
2023-04-15T16:27:25.007Z,100648.31
2023-04-15T16:30:27.284Z,100656.50
2023-04-15T16:33:29.452Z,100655.97
2023-04-15T16:36:32.782Z,100660.56
2023-04-15T16:39:34.979Z,100672.78
2023-04-15T16:42:37.460Z,100671.16
2023-04-15T16:45:39.647Z,100681.81
2023-04-15T16:48:42.198Z,100683.00
2023-04-15T16:51:44.353Z,100684.44
2023-04-15T16:54:46.423Z,100688.94
2023-04-15T16:58:02.009Z,100684.84
2023-04-15T17:01:09.730Z,100697.78
2023-04-15T17:04:22.205Z,100696.88
2023-04-15T17:07:27.986Z,100707.31
2023-04-15T17:10:34.024Z,100731.28
2023-04-15T17:13:36.411Z,100726.34
2023-04-15T17:16:38.777Z,100733.75
2023-04-15T17:19:40.933Z,100737.78
2023-04-15T17:22:45.468Z,100758.41
2023-04-15T17:25:53.916Z,100753.78
2023-04-15T17:28:57.736Z,100766.63
2023-04-15T17:32:07.896Z,100763.13
2023-04-15T17:35:33.044Z,100771.59
2023-04-15T17:38:56.638Z,100774.75
2023-04-15T17:42:18.867Z,100779.16
2023-04-15T17:45:40.965Z,100796.81
2023-04-15T17:49:03.496Z,100815.00
2023-04-15T17:52:28.026Z,100826.53
2023-04-15T17:55:53.166Z,100828.44
2023-04-15T17:59:18.691Z,100827.84
2023-04-15T18:02:41.332Z,100837.50
2023-04-15T18:06:04.010Z,100841.91
2023-04-15T18:09:27.477Z,100847.38
2023-04-15T18:12:49.609Z,100848.84
2023-04-15T18:16:11.839Z,100850.63
2023-04-15T18:19:34.093Z,100846.53
2023-04-15T18:22:36.390Z,100852.94
2023-04-15T18:25:38.920Z,100861.34
2023-04-15T18:28:44.621Z,100861.78
2023-04-15T18:31:47.212Z,100870.38
2023-04-15T18:34:49.456Z,100879.38
2023-04-15T18:37:53.134Z,100864.25
2023-04-15T18:40:55.519Z,100867.97
2023-04-15T18:43:57.787Z,100872.81
2023-04-15T18:47:01.279Z,100869.66
2023-04-15T18:50:03.844Z,100879.66
2023-04-15T18:53:06.164Z,100875.03
2023-04-15T18:56:08.436Z,100877.34
2023-04-15T18:59:28.084Z,100881.78
2023-04-15T19:02:32.547Z,100884.06
2023-04-15T19:05:35.386Z,100884.13
2023-04-15T19:08:37.694Z,100882.56
2023-04-15T19:11:39.953Z,100884.06
2023-04-15T19:14:42.286Z,100891.22
2023-04-15T19:17:44.809Z,100888.97
2023-04-15T19:20:48.022Z,100899.28
2023-04-15T19:23:52.311Z,100904.75
2023-04-15T19:26:54.456Z,100914.38
2023-04-15T19:29:56.766Z,100918.41
2023-04-15T19:33:01.274Z,100931.38
2023-04-15T19:36:06.343Z,100932.03
2023-04-15T19:39:10.721Z,100938.13
2023-04-15T19:42:12.994Z,100939.34
2023-04-15T19:45:15.371Z,100944.59
2023-04-15T19:48:17.848Z,100942.09
2023-04-15T19:51:20.199Z,100938.31
2023-04-15T19:54:23.012Z,100943.31
2023-04-15T20:00:49.522Z,100945.16
2023-04-15T20:03:53.425Z,100954.13
2023-04-15T20:06:56.204Z,100946.19
2023-04-15T20:09:58.418Z,100964.03
2023-04-15T20:13:00.508Z,100965.69
2023-04-15T20:16:06.924Z,100970.53
2023-04-15T20:19:13.261Z,100977.06
2023-04-15T20:22:16.430Z,100971.41
2023-04-15T20:25:18.775Z,100978.34
2023-04-15T20:28:23.560Z,100984.97
2023-04-15T20:31:40.227Z,100967.56
2023-04-15T20:34:42.500Z,100984.66
2023-04-15T20:37:45.205Z,100979.88
2023-04-15T20:40:47.351Z,100992.91
2023-04-15T20:43:49.495Z,100988.28
2023-04-15T20:46:52.713Z,100991.44
2023-04-15T20:49:58.517Z,100985.97
2023-04-15T20:53:01.082Z,100995.84
2023-04-15T20:56:03.274Z,100994.41
2023-04-15T20:59:06.126Z,100994.44
2023-04-15T21:02:08.943Z,100994.63
2023-04-15T21:05:11.527Z,100992.38
2023-04-15T21:08:14.691Z,101002.03
2023-04-15T21:11:36.529Z,101003.06
2023-04-15T21:14:39.867Z,101010.59
2023-04-15T21:17:43.300Z,101007.69
2023-04-15T21:20:46.532Z,101008.59
2023-04-15T21:23:48.841Z,101005.09
2023-04-15T21:26:52.102Z,101015.19
2023-04-15T21:29:55.004Z,101013.75
2023-04-15T21:33:01.850Z,101010.41
2023-04-15T21:36:05.200Z,101009.38
2023-04-15T21:39:08.005Z,101008.28
2023-04-15T21:42:10.428Z,101016.25
2023-04-15T21:45:38.298Z,101007.66
2023-04-15T21:48:41.081Z,101031.53
2023-04-15T21:55:03.604Z,101026.47
2023-04-15T21:58:06.580Z,101030.03
2023-04-15T22:01:08.908Z,101022.88
2023-04-15T22:04:16.362Z,101046.97
2023-04-15T22:07:22.239Z,101063.09
2023-04-15T22:10:33.299Z,101065.16
2023-04-15T22:13:38.530Z,101067.03
2023-04-15T22:16:43.973Z,101059.66
2023-04-15T22:19:47.610Z,101061.72
2023-04-15T22:22:54.281Z,101057.69
2023-04-15T22:25:56.886Z,101067.78
2023-04-15T22:29:07.933Z,101072.13
2023-04-15T22:35:31.102Z,101063.72
2023-04-15T22:38:38.224Z,101069.78
2023-04-15T22:41:41.580Z,101072.06
2023-04-15T22:45:09.061Z,101062.16
2023-04-15T22:48:11.625Z,101057.97
2023-04-15T22:51:29.248Z,101038.19
2023-04-15T22:55:19.568Z,101050.34
2023-04-15T22:59:11.735Z,101063.72
2023-04-15T23:02:46.435Z,101046.88
2023-04-15T23:06:09.351Z,101060.22
2023-04-15T23:09:51.376Z,101088.72
2023-04-15T23:17:24.106Z,101084.47
2023-04-15T23:20:26.987Z,101088.59
2023-04-15T23:23:29.092Z,101093.66
2023-04-15T23:26:31.478Z,101069.50
2023-04-15T23:29:33.810Z,101094.03
2023-04-15T23:32:37.467Z,101080.09
2023-04-15T23:35:39.801Z,101083.53
2023-04-15T23:38:42.578Z,101102.97
2023-04-15T23:41:44.708Z,101108.16
2023-04-15T23:44:46.842Z,101110.16
2023-04-15T23:47:49.045Z,101114.81
2023-04-15T23:50:51.963Z,101109.69
2023-04-15T23:53:54.346Z,101112.88
2023-04-15T23:56:56.672Z,101103.94
2023-04-15T23:59:59.126Z,101118.66
